createdAt,value
2018-05-11T00:00:34.322Z,13.50
2018-05-11T00:03:01.909Z,13.50
2018-05-11T00:05:30.208Z,13.40
2018-05-11T00:07:58.508Z,13.40
2018-05-11T00:10:26.084Z,13.40
2018-05-11T00:12:53.625Z,13.40
2018-05-11T00:15:21.157Z,13.40
2018-05-11T00:17:48.728Z,13.40
2018-05-11T00:20:16.273Z,13.40
2018-05-11T00:22:43.800Z,13.40
2018-05-11T00:25:11.371Z,13.40
2018-05-11T00:27:38.903Z,13.30
2018-05-11T00:30:06.453Z,13.30
2018-05-11T00:32:35.624Z,13.30
2018-05-11T00:35:03.163Z,13.30
2018-05-11T00:37:30.709Z,13.30
2018-05-11T00:39:58.289Z,13.30
2018-05-11T00:42:25.829Z,13.30
2018-05-11T00:44:54.127Z,13.30
2018-05-11T00:47:21.709Z,13.30
2018-05-11T00:49:49.246Z,13.30
2018-05-11T00:52:16.788Z,13.30
2018-05-11T00:54:44.382Z,13.30
2018-05-11T00:57:12.737Z,13.30
2018-05-11T00:59:40.269Z,13.30
2018-05-11T01:02:07.854Z,13.20
2018-05-11T01:04:35.397Z,13.30
2018-05-11T01:07:03.693Z,13.30
2018-05-11T01:09:32.033Z,13.30
2018-05-11T01:11:59.565Z,13.30
2018-05-11T01:14:27.857Z,13.30
2018-05-11T01:16:55.481Z,13.30
2018-05-11T01:19:23.007Z,13.30
2018-05-11T01:21:50.537Z,13.30
2018-05-11T01:24:18.115Z,13.20
2018-05-11T01:26:45.645Z,13.20
2018-05-11T01:29:13.194Z,13.20
2018-05-11T01:31:40.776Z,13.20
2018-05-11T01:34:08.313Z,13.20
2018-05-11T01:36:36.609Z,13.10
2018-05-11T01:39:05.766Z,13.10
2018-05-11T01:41:33.306Z,13.10
2018-05-11T01:44:00.837Z,13.10
2018-05-11T01:46:28.408Z,13.10
2018-05-11T01:48:56.021Z,13.10
2018-05-11T01:51:23.530Z,13.10
2018-05-11T01:53:51.105Z,13.10
2018-05-11T01:56:18.634Z,13.10
2018-05-11T01:58:46.171Z,13.10
2018-05-11T02:01:14.528Z,13.10
2018-05-11T02:03:42.060Z,13.10
2018-05-11T02:06:09.588Z,13.10
2018-05-11T02:08:37.168Z,13.10
2018-05-11T02:11:05.895Z,13.10
2018-05-11T02:13:33.424Z,13.10
2018-05-11T02:16:01.011Z,12.80
2018-05-11T02:18:29.332Z,13.00
2018-05-11T02:20:56.910Z,13.00
2018-05-11T02:23:24.550Z,13.00
2018-05-11T02:25:52.923Z,13.00
2018-05-11T02:28:20.445Z,13.00
2018-05-11T02:30:48.017Z,13.00
2018-05-11T02:33:15.599Z,13.00
2018-05-11T02:35:43.175Z,13.00
2018-05-11T02:38:10.744Z,12.90
2018-05-11T02:40:38.309Z,13.00
2018-05-11T02:43:05.836Z,13.00
2018-05-11T02:45:34.189Z,13.00
2018-05-11T02:48:01.735Z,13.00
2018-05-11T02:50:29.269Z,13.00
2018-05-11T02:52:57.607Z,12.90
2018-05-11T02:55:25.152Z,12.90
2018-05-11T02:57:52.686Z,12.90
2018-05-11T03:00:20.264Z,12.90
2018-05-11T03:02:48.578Z,12.90
2018-05-11T03:05:16.110Z,12.90
2018-05-11T03:07:43.915Z,12.90
2018-05-11T03:10:12.214Z,12.90
2018-05-11T03:12:39.754Z,12.80
2018-05-11T03:15:07.343Z,12.90
2018-05-11T03:17:35.569Z,12.90
2018-05-11T03:20:03.148Z,12.90
2018-05-11T03:22:30.900Z,12.90
2018-05-11T03:24:58.435Z,12.90
2018-05-11T03:27:26.761Z,12.90
2018-05-11T03:29:54.336Z,12.90
2018-05-11T03:32:21.874Z,12.90
2018-05-11T03:34:50.174Z,12.90
2018-05-11T03:37:17.762Z,12.90
2018-05-11T03:39:45.361Z,12.90
2018-05-11T03:42:12.927Z,12.90
2018-05-11T03:44:40.597Z,12.90
2018-05-11T03:47:08.156Z,12.90
2018-05-11T03:49:36.539Z,12.90
2018-05-11T03:52:04.112Z,12.90
2018-05-11T03:54:31.645Z,12.90
2018-05-11T03:56:59.168Z,12.90
2018-05-11T03:59:26.776Z,12.90
2018-05-11T04:02:06.046Z,13.00
2018-05-11T04:04:46.551Z,12.90
2018-05-11T04:07:25.830Z,12.90
2018-05-11T04:09:53.408Z,13.00
2018-05-11T04:12:20.933Z,12.90
2018-05-11T04:14:49.304Z,12.90
2018-05-11T04:17:17.675Z,12.90
2018-05-11T04:19:45.305Z,12.80
2018-05-11T04:22:12.841Z,12.90
2018-05-11T04:24:41.221Z,13.60
2018-05-11T04:27:09.518Z,14.00
2018-05-11T04:29:37.823Z,14.10
2018-05-11T04:32:05.453Z,14.10
2018-05-11T04:34:33.075Z,14.10
2018-05-11T04:37:00.649Z,14.00
2018-05-11T04:39:28.281Z,13.90
2018-05-11T04:41:55.821Z,13.80
2018-05-11T04:44:23.772Z,13.80
2018-05-11T04:46:51.417Z,13.70
2018-05-11T04:49:19.956Z,13.60
2018-05-11T04:51:47.521Z,13.60
2018-05-11T04:54:15.127Z,13.80
2018-05-11T04:56:42.664Z,14.20
2018-05-11T04:59:10.314Z,15.00
2018-05-11T05:01:37.896Z,16.00
2018-05-11T05:04:05.437Z,17.00
2018-05-11T05:06:33.733Z,18.60
2018-05-11T05:09:02.072Z,19.30
2018-05-11T05:11:29.613Z,19.30
2018-05-11T05:13:57.142Z,20.00
2018-05-11T05:16:24.709Z,20.50
2018-05-11T05:18:52.243Z,20.90
2018-05-11T05:21:19.765Z,21.30
2018-05-11T05:23:47.374Z,21.60
2018-05-11T05:26:14.970Z,21.10
2018-05-11T05:28:42.507Z,20.40
2018-05-11T05:31:10.077Z,19.80
2018-05-11T05:33:37.791Z,19.50
2018-05-11T05:36:05.461Z,19.00
2018-05-11T05:38:33.025Z,18.80
2018-05-11T05:41:00.563Z,18.60
2018-05-11T05:43:28.101Z,18.40
2018-05-11T05:45:55.698Z,18.00
2018-05-11T05:48:23.985Z,17.50
2018-05-11T05:50:52.350Z,17.20
2018-05-11T05:53:19.917Z,17.20
2018-05-11T05:55:47.442Z,17.10
2018-05-11T05:58:15.029Z,17.00
2018-05-11T06:00:42.605Z,16.90
2018-05-11T06:03:10.145Z,16.90
2018-05-11T06:05:37.957Z,16.90
2018-05-11T06:08:05.551Z,16.70
2018-05-11T06:10:33.080Z,16.50
2018-05-11T06:13:00.617Z,16.40
2018-05-11T06:15:28.962Z,16.50
2018-05-11T06:17:56.545Z,16.50
2018-05-11T06:20:24.085Z,16.80
2018-05-11T06:22:51.666Z,17.20
2018-05-11T06:25:19.258Z,17.30
2018-05-11T06:27:46.781Z,17.50
2018-05-11T06:30:14.367Z,17.60
2018-05-11T06:32:41.901Z,17.60
2018-05-11T06:35:10.209Z,17.60
2018-05-11T06:37:38.101Z,17.60
2018-05-11T06:40:05.640Z,17.70
2018-05-11T06:42:33.182Z,17.90
2018-05-11T06:45:00.750Z,18.00
2018-05-11T06:47:28.292Z,18.40
2018-05-11T06:49:55.827Z,18.90
2018-05-11T06:52:24.192Z,19.10
2018-05-11T06:54:51.720Z,19.10
2018-05-11T06:57:19.249Z,19.20
2018-05-11T06:59:46.833Z,19.60
2018-05-11T07:02:15.148Z,20.10
2018-05-11T07:04:42.741Z,20.10
2018-05-11T07:07:10.312Z,20.10
2018-05-11T07:09:38.965Z,19.70
2018-05-11T07:12:08.177Z,19.40
2018-05-11T07:14:36.511Z,19.40
2018-05-11T07:17:04.045Z,19.40
2018-05-11T07:19:31.624Z,19.70
2018-05-11T07:21:59.941Z,20.20
2018-05-11T07:24:27.470Z,20.20
2018-05-11T07:26:55.765Z,20.70
2018-05-11T07:29:24.111Z,20.80
2018-05-11T07:31:51.652Z,20.80
2018-05-11T07:34:19.177Z,21.00
2018-05-11T07:36:47.532Z,20.90
2018-05-11T07:39:15.053Z,20.90
2018-05-11T07:41:42.594Z,21.00
2018-05-11T07:44:10.165Z,21.00
2018-05-11T07:46:38.430Z,21.00
2018-05-11T07:49:05.958Z,20.90
2018-05-11T07:51:33.623Z,21.10
2018-05-11T07:54:01.097Z,21.20
2018-05-11T07:56:28.657Z,21.40
2018-05-11T07:58:56.994Z,21.50
2018-05-11T08:01:24.547Z,21.50
2018-05-11T08:03:52.093Z,21.40
2018-05-11T08:06:20.436Z,21.40
2018-05-11T08:08:47.967Z,21.40
2018-05-11T08:11:15.496Z,21.40
2018-05-11T08:13:43.077Z,21.20
2018-05-11T08:16:10.617Z,21.40
2018-05-11T08:18:38.650Z,21.40
2018-05-11T08:21:06.996Z,21.50
2018-05-11T08:23:34.517Z,21.50
2018-05-11T08:26:02.089Z,21.50
2018-05-11T08:28:29.661Z,21.70
2018-05-11T08:30:57.197Z,21.70
2018-05-11T08:33:24.842Z,21.70
2018-05-11T08:35:52.514Z,21.90
2018-05-11T08:38:20.277Z,21.90
2018-05-11T08:40:47.834Z,21.90
2018-05-11T08:43:15.451Z,22.20
2018-05-11T08:45:42.988Z,22.50
2018-05-11T08:48:10.521Z,22.60
2018-05-11T08:50:38.956Z,22.70
2018-05-11T08:53:06.487Z,22.60
2018-05-11T08:55:34.784Z,22.50
2018-05-11T08:58:03.113Z,22.30
2018-05-11T09:00:30.641Z,22.30
2018-05-11T09:02:59.030Z,21.90
2018-05-11T09:05:26.589Z,21.90
2018-05-11T09:07:54.118Z,21.80
2018-05-11T09:10:22.804Z,22.50
2018-05-11T09:12:50.468Z,22.50
2018-05-11T09:15:18.056Z,22.40
2018-05-11T09:17:45.625Z,22.60
2018-05-11T09:20:13.249Z,22.70
2018-05-11T09:22:40.780Z,22.70
2018-05-11T09:25:09.006Z,22.90
2018-05-11T09:27:36.605Z,23.00
2018-05-11T09:30:04.141Z,23.10
2018-05-11T09:32:31.764Z,23.30
2018-05-11T09:34:59.337Z,23.30
2018-05-11T09:37:26.871Z,23.50
2018-05-11T09:39:55.169Z,23.90
2018-05-11T09:42:23.509Z,24.00
2018-05-11T09:44:51.069Z,23.90
2018-05-11T09:47:18.627Z,23.60
2018-05-11T09:49:46.201Z,23.20
2018-05-11T09:52:13.734Z,22.50
2018-05-11T09:54:41.287Z,22.00
2018-05-11T09:57:09.942Z,21.90
2018-05-11T09:59:37.904Z,21.90
2018-05-11T10:02:05.534Z,22.40
2018-05-11T10:04:33.122Z,22.60
2018-05-11T10:07:01.501Z,23.30
2018-05-11T10:09:28.998Z,23.30
2018-05-11T10:11:57.339Z,23.50
2018-05-11T10:14:24.962Z,23.50
2018-05-11T10:16:52.524Z,23.40
2018-05-11T10:19:20.853Z,23.10
2018-05-11T10:21:49.175Z,23.10
2018-05-11T10:24:16.807Z,22.70
2018-05-11T10:26:44.493Z,22.70
2018-05-11T10:29:12.146Z,22.80
2018-05-11T10:31:39.617Z,22.90
2018-05-11T10:34:07.201Z,22.30
2018-05-11T10:36:34.727Z,21.60
2018-05-11T10:39:03.151Z,22.50
2018-05-11T10:41:30.761Z,22.50
2018-05-11T10:43:58.334Z,22.80
2018-05-11T10:46:25.881Z,23.10
2018-05-11T10:48:53.565Z,23.00
2018-05-11T10:51:21.118Z,23.10
2018-05-11T10:53:48.702Z,23.60
2018-05-11T10:56:16.272Z,23.40
2018-05-11T10:58:43.933Z,22.70
2018-05-11T11:01:11.522Z,22.60
2018-05-11T11:03:39.421Z,22.30
2018-05-11T11:06:06.962Z,22.40
2018-05-11T11:08:34.488Z,22.60
2018-05-11T11:11:02.821Z,23.00
2018-05-11T11:13:30.416Z,23.00
2018-05-11T11:15:57.956Z,23.10
2018-05-11T11:18:25.533Z,23.20
2018-05-11T11:20:53.069Z,23.40
2018-05-11T11:23:21.371Z,23.20
2018-05-11T11:25:49.086Z,23.20
2018-05-11T11:28:16.612Z,22.90
2018-05-11T11:30:44.152Z,23.00
2018-05-11T11:33:13.225Z,23.10
2018-05-11T11:35:40.773Z,23.10
2018-05-11T11:38:09.993Z,23.10
2018-05-11T11:40:37.574Z,23.10
2018-05-11T11:43:05.113Z,23.30
2018-05-11T11:45:33.437Z,23.50
2018-05-11T11:48:01.017Z,23.50
2018-05-11T11:50:28.564Z,23.20
2018-05-11T11:52:56.097Z,23.30
2018-05-11T11:55:23.664Z,22.60
2018-05-11T11:57:51.291Z,22.60
2018-05-11T12:00:18.845Z,22.70
2018-05-11T12:02:46.429Z,22.80
2018-05-11T12:05:13.969Z,22.90
2018-05-11T12:07:41.540Z,22.90
2018-05-11T12:10:10.482Z,22.10
2018-05-11T12:12:38.069Z,22.10
2018-05-11T12:15:05.623Z,22.50
2018-05-11T12:17:33.204Z,22.40
2018-05-11T12:20:00.762Z,22.50
2018-05-11T12:22:28.289Z,22.60
2018-05-11T12:24:56.625Z,22.80
2018-05-11T12:27:24.157Z,22.80
2018-05-11T12:29:52.449Z,22.70
2018-05-11T12:32:20.796Z,22.80
2018-05-11T12:34:48.457Z,22.70
2018-05-11T12:37:16.002Z,22.60
2018-05-11T12:39:43.584Z,22.50
2018-05-11T12:42:11.117Z,22.60
2018-05-11T12:44:40.333Z,22.50
2018-05-11T12:47:08.668Z,22.50
2018-05-11T12:49:36.192Z,22.50
2018-05-11T12:52:04.517Z,22.60
2018-05-11T12:54:32.086Z,22.50
2018-05-11T12:56:59.673Z,22.30
2018-05-11T12:59:27.206Z,21.90
2018-05-11T13:01:54.804Z,21.50
2018-05-11T13:04:22.350Z,21.50
2018-05-11T13:06:49.958Z,21.30
2018-05-11T13:09:17.612Z,21.50
2018-05-11T13:11:45.152Z,21.80
2018-05-11T13:14:13.469Z,22.20
2018-05-11T13:16:41.151Z,22.20
2018-05-11T13:19:08.676Z,22.10
2018-05-11T13:21:36.972Z,22.20
2018-05-11T13:24:05.397Z,22.10
2018-05-11T13:26:32.922Z,22.10
2018-05-11T13:29:00.553Z,22.20
2018-05-11T13:31:28.122Z,22.30
2018-05-11T13:33:55.683Z,22.20
2018-05-11T13:36:23.414Z,22.20
2018-05-11T13:38:50.944Z,22.30
2018-05-11T13:41:18.506Z,22.00
2018-05-11T13:43:46.078Z,22.00
2018-05-11T13:46:13.870Z,22.00
2018-05-11T13:48:41.414Z,21.80
2018-05-11T13:51:08.944Z,21.50
2018-05-11T13:53:36.510Z,21.30
2018-05-11T13:56:04.110Z,20.80
2018-05-11T13:58:31.597Z,20.70
2018-05-11T14:00:59.159Z,20.70
2018-05-11T14:03:26.690Z,20.80
2018-05-11T14:05:54.229Z,21.00
2018-05-11T14:08:21.901Z,21.10
2018-05-11T14:10:49.467Z,21.20
2018-05-11T14:13:17.034Z,21.20
2018-05-11T14:15:44.803Z,21.20
2018-05-11T14:18:12.363Z,21.10
2018-05-11T14:20:41.149Z,21.10
2018-05-11T14:23:10.401Z,21.20
2018-05-11T14:25:37.929Z,21.20
2018-05-11T14:28:06.221Z,21.30
2018-05-11T14:30:34.570Z,21.40
2018-05-11T14:33:02.102Z,21.40
2018-05-11T14:35:29.660Z,21.50
2018-05-11T14:40:27.184Z,21.00
2018-05-11T14:42:54.718Z,20.90
2018-05-11T14:45:23.033Z,20.50
2018-05-11T14:47:50.597Z,20.50
2018-05-11T14:50:18.123Z,20.40
2018-05-11T14:52:45.854Z,20.30
2018-05-11T14:55:13.445Z,20.10
2018-05-11T14:57:40.994Z,20.00
2018-05-11T15:00:08.529Z,20.00
2018-05-11T15:02:36.093Z,20.00
2018-05-11T15:05:04.388Z,20.00
2018-05-11T15:07:32.021Z,20.00
2018-05-11T15:09:59.600Z,19.90
2018-05-11T15:12:27.144Z,19.80
2018-05-11T15:14:54.679Z,19.80
2018-05-11T15:17:23.072Z,19.70
2018-05-11T15:19:51.373Z,19.70
2018-05-11T15:22:19.782Z,19.80
2018-05-11T15:24:47.367Z,19.80
2018-05-11T15:27:14.906Z,19.80
2018-05-11T15:29:42.493Z,19.80
2018-05-11T15:32:10.639Z,19.90
2018-05-11T15:34:38.193Z,20.00
2018-05-11T15:37:05.721Z,20.10
2018-05-11T15:39:33.321Z,20.20
2018-05-11T15:42:00.893Z,20.30
2018-05-11T15:44:28.441Z,20.40
2018-05-11T15:46:56.037Z,20.50
2018-05-11T15:49:23.566Z,20.60
2018-05-11T15:51:51.120Z,20.70
2018-05-11T15:54:19.455Z,20.80
2018-05-11T15:56:46.981Z,20.80
2018-05-11T15:59:15.408Z,20.80
2018-05-11T16:01:43.090Z,20.70
2018-05-11T16:04:10.865Z,20.80
2018-05-11T16:06:38.433Z,20.70
2018-05-11T16:09:06.643Z,20.70
2018-05-11T16:11:34.192Z,20.70
2018-05-11T16:14:01.793Z,20.70
2018-05-11T16:16:29.433Z,20.80
2018-05-11T16:18:56.972Z,20.70
2018-05-11T16:21:25.268Z,20.70
2018-05-11T16:23:53.605Z,20.60
2018-05-11T16:26:21.151Z,20.60
2018-05-11T16:28:48.693Z,20.50
2018-05-11T16:31:17.126Z,20.60
2018-05-11T16:33:44.729Z,20.60
2018-05-11T16:36:12.267Z,20.60
2018-05-11T16:38:40.762Z,20.60
2018-05-11T16:41:08.425Z,20.50
2018-05-11T16:43:35.958Z,20.50
2018-05-11T16:46:04.292Z,20.40
2018-05-11T16:48:31.823Z,20.30
2018-05-11T16:51:00.121Z,20.30
2018-05-11T16:53:28.462Z,20.30
2018-05-11T16:55:55.999Z,20.30
2018-05-11T16:58:23.592Z,20.30
2018-05-11T17:00:51.161Z,20.20
2018-05-11T17:03:18.713Z,20.20
2018-05-11T17:05:46.319Z,20.20
2018-05-11T17:08:14.200Z,20.00
2018-05-11T17:10:41.696Z,20.00
2018-05-11T17:13:09.217Z,20.00
2018-05-11T17:15:36.883Z,20.10
2018-05-11T17:18:04.399Z,20.10
2018-05-11T17:20:31.956Z,20.00
2018-05-11T17:22:59.529Z,20.00
2018-05-11T17:25:27.189Z,20.00
2018-05-11T17:27:54.727Z,20.00
2018-05-11T17:30:22.619Z,20.00
2018-05-11T17:32:50.169Z,20.00
2018-05-11T17:35:18.470Z,19.90
2018-05-11T17:37:46.046Z,19.90
2018-05-11T17:40:13.633Z,19.90
2018-05-11T17:42:41.166Z,19.80
2018-05-11T17:45:09.579Z,19.50
2018-05-11T17:47:37.183Z,19.50
2018-05-11T17:50:04.757Z,19.50
2018-05-11T17:52:32.331Z,19.50
2018-05-11T17:54:59.901Z,19.50
2018-05-11T17:57:27.461Z,19.40
2018-05-11T17:59:55.079Z,19.30
2018-05-11T18:02:23.488Z,19.10
2018-05-11T18:04:51.029Z,19.00
2018-05-11T18:07:20.347Z,18.90
2018-05-11T18:09:47.945Z,18.90
2018-05-11T18:12:15.581Z,18.90
2018-05-11T18:14:43.083Z,18.80
2018-05-11T18:17:12.188Z,18.70
2018-05-11T18:19:41.469Z,18.80
2018-05-11T18:22:09.115Z,18.80
2018-05-11T18:24:36.765Z,18.80
2018-05-11T18:27:04.475Z,18.80
2018-05-11T18:29:32.051Z,18.70
2018-05-11T18:31:59.789Z,18.70
2018-05-11T18:34:27.327Z,18.60
2018-05-11T18:36:55.757Z,18.50
2018-05-11T18:39:23.301Z,18.50
2018-05-11T18:41:51.640Z,18.40
2018-05-11T18:44:19.282Z,18.40
2018-05-11T18:46:46.960Z,18.30
2018-05-11T18:49:14.505Z,18.30
2018-05-11T18:51:42.907Z,18.20
2018-05-11T18:54:11.693Z,18.20
2018-05-11T18:56:38.869Z,18.20
2018-05-11T18:59:06.617Z,18.20
2018-05-11T19:01:34.268Z,18.20
2018-05-11T19:04:01.804Z,18.10
2018-05-11T19:06:29.400Z,18.00
2018-05-11T19:08:57.094Z,18.10
2018-05-11T19:11:25.381Z,18.10
2018-05-11T19:13:52.962Z,18.10
2018-05-11T19:16:20.569Z,18.10
2018-05-11T19:18:49.134Z,18.10
2018-05-11T19:21:17.501Z,18.00
2018-05-11T19:23:45.079Z,18.00
2018-05-11T19:26:12.749Z,18.00
2018-05-11T19:28:40.335Z,18.00
2018-05-11T19:31:07.876Z,18.00
2018-05-11T19:33:35.720Z,17.90
2018-05-11T19:36:03.302Z,17.90
2018-05-11T19:38:31.086Z,17.80
2018-05-11T19:40:58.612Z,17.70
2018-05-11T19:43:26.184Z,17.60
2018-05-11T19:45:53.766Z,17.40
2018-05-11T19:48:22.065Z,17.10
2018-05-11T19:50:49.678Z,17.10
2018-05-11T19:53:17.221Z,17.00
2018-05-11T19:55:44.765Z,16.90
2018-05-11T19:58:13.139Z,16.70
2018-05-11T20:00:40.707Z,16.60
2018-05-11T20:03:08.250Z,16.60
2018-05-11T20:05:36.053Z,16.50
2018-05-11T20:08:03.589Z,16.50
2018-05-11T20:10:31.120Z,16.50
2018-05-11T20:12:59.471Z,16.30
2018-05-11T20:15:27.030Z,16.30
2018-05-11T20:17:54.564Z,16.20
2018-05-11T20:20:22.136Z,16.20
2018-05-11T20:22:50.491Z,16.10
2018-05-11T20:25:18.032Z,16.10
2018-05-11T20:27:45.600Z,16.10
2018-05-11T20:30:13.129Z,16.00
2018-05-11T20:32:42.390Z,16.00
2018-05-11T20:35:09.959Z,16.00
2018-05-11T20:37:37.503Z,16.00
2018-05-11T20:40:05.029Z,16.10
2018-05-11T20:42:32.628Z,16.10
2018-05-11T20:45:00.944Z,15.90
2018-05-11T20:47:28.488Z,15.90
2018-05-11T20:49:56.820Z,15.80
2018-05-11T20:52:24.359Z,15.70
2018-05-11T20:54:51.889Z,15.70
2018-05-11T20:57:19.467Z,15.70
2018-05-11T20:59:47.064Z,15.70
2018-05-11T21:02:15.356Z,15.60
2018-05-11T21:04:43.935Z,15.60
2018-05-11T21:07:11.549Z,15.60
2018-05-11T21:09:39.085Z,15.50
2018-05-11T21:12:07.429Z,15.40
2018-05-11T21:14:35.024Z,15.40
2018-05-11T21:17:02.509Z,15.40
2018-05-11T21:19:30.858Z,15.40
2018-05-11T21:21:58.414Z,15.40
2018-05-11T21:24:25.946Z,15.40
2018-05-11T21:26:54.313Z,15.50
2018-05-11T21:29:21.841Z,15.40
2018-05-11T21:31:49.369Z,15.40
2018-05-11T21:34:17.709Z,15.40
2018-05-11T21:36:45.233Z,15.40
2018-05-11T21:39:12.800Z,15.50
2018-05-11T21:41:40.368Z,15.40
2018-05-11T21:44:07.905Z,15.50
2018-05-11T21:46:35.428Z,15.50
2018-05-11T21:49:03.765Z,15.50
2018-05-11T21:51:31.292Z,15.40
2018-05-11T21:53:58.820Z,15.50
2018-05-11T21:56:26.399Z,15.40
2018-05-11T21:58:53.930Z,15.50
2018-05-11T22:01:21.459Z,15.50
2018-05-11T22:03:49.796Z,15.50
2018-05-11T22:06:17.327Z,15.50
2018-05-11T22:08:45.630Z,15.60
2018-05-11T22:11:13.205Z,15.60
2018-05-11T22:13:40.729Z,15.60
2018-05-11T22:16:08.275Z,15.60
2018-05-11T22:18:35.849Z,15.60
2018-05-11T22:21:03.410Z,15.60
2018-05-11T22:23:30.942Z,15.60
2018-05-11T22:25:58.520Z,15.60
2018-05-11T22:28:26.833Z,15.50
2018-05-11T22:30:54.391Z,15.40
2018-05-11T22:33:21.961Z,15.50
2018-05-11T22:35:49.493Z,15.50
2018-05-11T22:38:17.025Z,15.40
2018-05-11T22:40:44.594Z,15.40
2018-05-11T22:43:13.058Z,15.50
2018-05-11T22:45:41.352Z,15.40
2018-05-11T22:48:08.945Z,15.40
2018-05-11T22:50:36.606Z,15.40
2018-05-11T22:53:04.203Z,15.40
2018-05-11T22:55:31.866Z,15.40
2018-05-11T22:57:59.397Z,15.40
2018-05-11T23:00:40.362Z,15.40
2018-05-11T23:03:07.889Z,15.40
2018-05-11T23:05:35.427Z,15.30
2018-05-11T23:08:03.764Z,15.30
2018-05-11T23:10:31.299Z,15.30
2018-05-11T23:12:58.846Z,15.30
2018-05-11T23:15:27.200Z,15.30
2018-05-11T23:17:54.732Z,15.30
2018-05-11T23:20:22.265Z,15.30
2018-05-11T23:22:49.849Z,15.20
2018-05-11T23:25:17.376Z,15.20
2018-05-11T23:27:44.991Z,15.20
2018-05-11T23:30:12.506Z,15.20
2018-05-11T23:32:40.033Z,15.20
2018-05-11T23:35:07.636Z,15.20
2018-05-11T23:37:35.157Z,15.30
2018-05-11T23:40:02.685Z,15.20
2018-05-11T23:42:30.213Z,15.20
2018-05-11T23:44:58.576Z,15.30
2018-05-11T23:47:26.116Z,15.20
2018-05-11T23:49:53.649Z,15.20
2018-05-11T23:52:21.266Z,15.20
2018-05-11T23:54:48.840Z,15.20
2018-05-11T23:57:16.372Z,15.20
2018-05-11T23:59:44.086Z,15.10
